sensor_id;sensor_type;location;lat;lon;timestamp;temperature;humidity
44729;DHT22;30457;53.590;9.922;2024-02-16T00:04:14;15.90;66.30
44729;DHT22;30457;53.590;9.922;2024-02-16T00:08:40;15.90;65.90
44729;DHT22;30457;53.590;9.922;2024-02-16T00:13:06;15.80;65.90
44729;DHT22;30457;53.590;9.922;2024-02-16T00:17:32;15.80;65.90
44729;DHT22;30457;53.590;9.922;2024-02-16T00:21:58;15.80;65.90
44729;DHT22;30457;53.590;9.922;2024-02-16T00:26:25;15.80;65.80
44729;DHT22;30457;53.590;9.922;2024-02-16T00:30:50;15.70;65.70
44729;DHT22;30457;53.590;9.922;2024-02-16T00:35:16;15.70;65.70
44729;DHT22;30457;53.590;9.922;2024-02-16T00:39:43;15.70;66.30
44729;DHT22;30457;53.590;9.922;2024-02-16T00:44:08;15.70;65.80
44729;DHT22;30457;53.590;9.922;2024-02-16T00:48:34;15.70;65.90
44729;DHT22;30457;53.590;9.922;2024-02-16T00:52:59;15.70;65.90
44729;DHT22;30457;53.590;9.922;2024-02-16T00:57:25;15.70;65.30
44729;DHT22;30457;53.590;9.922;2024-02-16T01:01:51;15.60;65.80
44729;DHT22;30457;53.590;9.922;2024-02-16T01:06:16;15.60;65.60
44729;DHT22;30457;53.590;9.922;2024-02-16T01:10:42;15.60;65.50
44729;DHT22;30457;53.590;9.922;2024-02-16T01:15:08;15.60;65.40
44729;DHT22;30457;53.590;9.922;2024-02-16T01:19:34;15.60;65.40
44729;DHT22;30457;53.590;9.922;2024-02-16T01:23:59;15.50;64.70
44729;DHT22;30457;53.590;9.922;2024-02-16T01:28:26;15.50;65.30
44729;DHT22;30457;53.590;9.922;2024-02-16T01:32:51;15.40;65.10
44729;DHT22;30457;53.590;9.922;2024-02-16T01:37:17;15.40;65.00
44729;DHT22;30457;53.590;9.922;2024-02-16T01:41:43;15.40;65.10
44729;DHT22;30457;53.590;9.922;2024-02-16T01:46:08;15.30;65.10
44729;DHT22;30457;53.590;9.922;2024-02-16T01:50:34;15.20;64.60
44729;DHT22;30457;53.590;9.922;2024-02-16T01:54:59;15.20;65.20
44729;DHT22;30457;53.590;9.922;2024-02-16T01:59:28;15.20;65.30
44729;DHT22;30457;53.590;9.922;2024-02-16T02:08:20;15.20;64.70
44729;DHT22;30457;53.590;9.922;2024-02-16T02:12:45;15.10;65.50
44729;DHT22;30457;53.590;9.922;2024-02-16T02:17:11;15.10;65.60
44729;DHT22;30457;53.590;9.922;2024-02-16T02:21:37;15.10;65.70
44729;DHT22;30457;53.590;9.922;2024-02-16T02:26:02;15.10;65.80
44729;DHT22;30457;53.590;9.922;2024-02-16T02:30:28;15.00;65.70
44729;DHT22;30457;53.590;9.922;2024-02-16T02:34:54;15.00;65.60
44729;DHT22;30457;53.590;9.922;2024-02-16T02:39:20;15.00;65.50
44729;DHT22;30457;53.590;9.922;2024-02-16T02:43:45;15.00;65.50
44729;DHT22;30457;53.590;9.922;2024-02-16T02:48:11;15.00;65.50
44729;DHT22;30457;53.590;9.922;2024-02-16T02:52:37;14.90;65.60
44729;DHT22;30457;53.590;9.922;2024-02-16T02:57:03;14.90;65.60
44729;DHT22;30457;53.590;9.922;2024-02-16T03:01:28;14.90;65.70
44729;DHT22;30457;53.590;9.922;2024-02-16T03:05:54;14.90;65.70
44729;DHT22;30457;53.590;9.922;2024-02-16T03:10:20;14.90;65.80
44729;DHT22;30457;53.590;9.922;2024-02-16T03:14:47;14.90;65.80
44729;DHT22;30457;53.590;9.922;2024-02-16T03:19:13;14.80;65.10
44729;DHT22;30457;53.590;9.922;2024-02-16T03:23:38;14.80;65.80
44729;DHT22;30457;53.590;9.922;2024-02-16T03:28:04;14.90;65.80
44729;DHT22;30457;53.590;9.922;2024-02-16T03:32:31;14.90;65.90
44729;DHT22;30457;53.590;9.922;2024-02-16T03:36:56;14.90;66.10
44729;DHT22;30457;53.590;9.922;2024-02-16T03:41:24;14.80;66.00
44729;DHT22;30457;53.590;9.922;2024-02-16T03:45:49;14.90;66.00
44729;DHT22;30457;53.590;9.922;2024-02-16T03:50:15;14.90;66.00
44729;DHT22;30457;53.590;9.922;2024-02-16T03:54:41;14.90;66.10
44729;DHT22;30457;53.590;9.922;2024-02-16T03:59:09;14.90;66.20
44729;DHT22;30457;53.590;9.922;2024-02-16T04:03:35;14.90;66.10
44729;DHT22;30457;53.590;9.922;2024-02-16T04:08:01;14.80;65.80
44729;DHT22;30457;53.590;9.922;2024-02-16T04:12:29;14.80;65.80
44729;DHT22;30457;53.590;9.922;2024-02-16T04:16:54;14.80;65.60
44729;DHT22;30457;53.590;9.922;2024-02-16T04:21:23;14.80;65.70
44729;DHT22;30457;53.590;9.922;2024-02-16T04:25:48;14.80;65.70
44729;DHT22;30457;53.590;9.922;2024-02-16T04:30:14;14.80;65.70
44729;DHT22;30457;53.590;9.922;2024-02-16T04:34:40;14.80;65.90
44729;DHT22;30457;53.590;9.922;2024-02-16T04:39:05;14.80;66.10
44729;DHT22;30457;53.590;9.922;2024-02-16T04:43:31;14.80;66.00
44729;DHT22;30457;53.590;9.922;2024-02-16T04:47:56;14.80;65.90
44729;DHT22;30457;53.590;9.922;2024-02-16T04:52:22;14.80;65.90
44729;DHT22;30457;53.590;9.922;2024-02-16T04:56:48;14.80;65.90
44729;DHT22;30457;53.590;9.922;2024-02-16T05:01:14;14.80;65.90
44729;DHT22;30457;53.590;9.922;2024-02-16T05:05:40;14.80;65.80
44729;DHT22;30457;53.590;9.922;2024-02-16T05:10:09;14.80;65.60
44729;DHT22;30457;53.590;9.922;2024-02-16T05:14:35;14.70;65.50
44729;DHT22;30457;53.590;9.922;2024-02-16T05:19:01;14.80;65.70
44729;DHT22;30457;53.590;9.922;2024-02-16T05:23:27;14.70;65.60
44729;DHT22;30457;53.590;9.922;2024-02-16T05:27:52;14.70;65.60
44729;DHT22;30457;53.590;9.922;2024-02-16T05:32:18;14.70;66.10
44729;DHT22;30457;53.590;9.922;2024-02-16T05:36:44;14.70;65.50
44729;DHT22;30457;53.590;9.922;2024-02-16T05:41:10;14.70;65.60
44729;DHT22;30457;53.590;9.922;2024-02-16T05:45:36;14.70;65.60
44729;DHT22;30457;53.590;9.922;2024-02-16T05:50:02;14.70;65.60
44729;DHT22;30457;53.590;9.922;2024-02-16T05:54:27;14.70;65.70
44729;DHT22;30457;53.590;9.922;2024-02-16T05:58:53;14.70;66.40
44729;DHT22;30457;53.590;9.922;2024-02-16T06:03:19;14.70;65.60
44729;DHT22;30457;53.590;9.922;2024-02-16T06:07:44;14.70;65.40
44729;DHT22;30457;53.590;9.922;2024-02-16T06:12:10;14.60;65.30
44729;DHT22;30457;53.590;9.922;2024-02-16T06:16:38;14.60;65.10
44729;DHT22;30457;53.590;9.922;2024-02-16T06:21:04;14.60;65.10
44729;DHT22;30457;53.590;9.922;2024-02-16T06:25:30;14.60;65.10
44729;DHT22;30457;53.590;9.922;2024-02-16T06:29:55;14.50;64.90
44729;DHT22;30457;53.590;9.922;2024-02-16T06:34:21;14.50;64.90
44729;DHT22;30457;53.590;9.922;2024-02-16T06:38:46;14.50;64.90
44729;DHT22;30457;53.590;9.922;2024-02-16T06:43:12;14.50;64.90
44729;DHT22;30457;53.590;9.922;2024-02-16T06:47:37;14.40;64.80
44729;DHT22;30457;53.590;9.922;2024-02-16T06:52:03;14.40;64.80
44729;DHT22;30457;53.590;9.922;2024-02-16T06:56:31;14.40;64.80
44729;DHT22;30457;53.590;9.922;2024-02-16T07:00:57;14.30;64.70
44729;DHT22;30457;53.590;9.922;2024-02-16T07:05:28;14.30;64.70
44729;DHT22;30457;53.590;9.922;2024-02-16T07:09:53;14.30;64.80
44729;DHT22;30457;53.590;9.922;2024-02-16T07:14:20;14.30;64.80
44729;DHT22;30457;53.590;9.922;2024-02-16T07:18:46;14.30;64.90
44729;DHT22;30457;53.590;9.922;2024-02-16T07:23:11;14.20;65.10
44729;DHT22;30457;53.590;9.922;2024-02-16T07:27:37;14.30;65.30
44729;DHT22;30457;53.590;9.922;2024-02-16T07:32:03;14.30;65.50
44729;DHT22;30457;53.590;9.922;2024-02-16T07:36:29;14.30;65.50
44729;DHT22;30457;53.590;9.922;2024-02-16T07:40:56;14.30;65.50
44729;DHT22;30457;53.590;9.922;2024-02-16T07:45:21;14.30;65.60
44729;DHT22;30457;53.590;9.922;2024-02-16T07:49:47;14.30;65.80
44729;DHT22;30457;53.590;9.922;2024-02-16T07:54:12;14.40;66.00
44729;DHT22;30457;53.590;9.922;2024-02-16T07:58:41;14.40;66.00
44729;DHT22;30457;53.590;9.922;2024-02-16T08:03:07;14.50;66.00
44729;DHT22;30457;53.590;9.922;2024-02-16T08:07:33;14.50;66.20
44729;DHT22;30457;53.590;9.922;2024-02-16T08:11:59;14.60;66.40
44729;DHT22;30457;53.590;9.922;2024-02-16T08:16:25;14.70;66.70
44729;DHT22;30457;53.590;9.922;2024-02-16T08:20:51;14.80;66.90
44729;DHT22;30457;53.590;9.922;2024-02-16T08:25:17;14.90;66.70
44729;DHT22;30457;53.590;9.922;2024-02-16T08:29:43;15.00;66.30
44729;DHT22;30457;53.590;9.922;2024-02-16T08:34:09;15.10;65.80
44729;DHT22;30457;53.590;9.922;2024-02-16T08:38:36;15.10;65.50
44729;DHT22;30457;53.590;9.922;2024-02-16T08:43:02;15.20;65.40
44729;DHT22;30457;53.590;9.922;2024-02-16T08:47:28;15.30;65.40
44729;DHT22;30457;53.590;9.922;2024-02-16T08:51:54;15.30;65.00
44729;DHT22;30457;53.590;9.922;2024-02-16T08:56:19;15.40;64.90
44729;DHT22;30457;53.590;9.922;2024-02-16T09:00:46;15.40;64.80
44729;DHT22;30457;53.590;9.922;2024-02-16T09:05:11;15.50;64.70
44729;DHT22;30457;53.590;9.922;2024-02-16T09:09:37;15.50;64.80
44729;DHT22;30457;53.590;9.922;2024-02-16T09:14:02;15.60;64.90
44729;DHT22;30457;53.590;9.922;2024-02-16T09:18:30;15.60;65.80
44729;DHT22;30457;53.590;9.922;2024-02-16T09:22:55;15.70;64.90
44729;DHT22;30457;53.590;9.922;2024-02-16T09:27:22;15.70;64.60
44729;DHT22;30457;53.590;9.922;2024-02-16T09:31:49;15.80;64.50
44729;DHT22;30457;53.590;9.922;2024-02-16T09:36:18;15.80;64.50
44729;DHT22;30457;53.590;9.922;2024-02-16T09:40:44;15.90;64.40
44729;DHT22;30457;53.590;9.922;2024-02-16T09:45:11;15.90;64.50
44729;DHT22;30457;53.590;9.922;2024-02-16T09:49:37;16.00;64.40
44729;DHT22;30457;53.590;9.922;2024-02-16T09:54:03;16.00;64.20
44729;DHT22;30457;53.590;9.922;2024-02-16T09:58:29;16.00;64.00
44729;DHT22;30457;53.590;9.922;2024-02-16T10:02:54;16.10;64.10
44729;DHT22;30457;53.590;9.922;2024-02-16T10:07:31;16.10;64.20
44729;DHT22;30457;53.590;9.922;2024-02-16T10:11:56;16.20;64.10
44729;DHT22;30457;53.590;9.922;2024-02-16T10:16:22;16.30;64.60
44729;DHT22;30457;53.590;9.922;2024-02-16T10:20:48;16.40;64.40
44729;DHT22;30457;53.590;9.922;2024-02-16T10:25:14;16.50;64.50
44729;DHT22;30457;53.590;9.922;2024-02-16T10:29:40;16.50;64.60
44729;DHT22;30457;53.590;9.922;2024-02-16T10:34:07;16.60;64.60
44729;DHT22;30457;53.590;9.922;2024-02-16T10:38:34;16.70;64.30
44729;DHT22;30457;53.590;9.922;2024-02-16T10:43:04;16.90;63.60
44729;DHT22;30457;53.590;9.922;2024-02-16T10:47:30;16.90;62.90
44729;DHT22;30457;53.590;9.922;2024-02-16T10:51:56;16.90;62.80
44729;DHT22;30457;53.590;9.922;2024-02-16T10:56:34;17.00;62.10
44729;DHT22;30457;53.590;9.922;2024-02-16T11:01:10;17.10;61.80
44729;DHT22;30457;53.590;9.922;2024-02-16T11:05:41;17.20;61.60
44729;DHT22;30457;53.590;9.922;2024-02-16T11:10:13;17.30;61.80
44729;DHT22;30457;53.590;9.922;2024-02-16T11:14:41;17.30;61.50
44729;DHT22;30457;53.590;9.922;2024-02-16T11:19:07;17.40;61.10
44729;DHT22;30457;53.590;9.922;2024-02-16T11:23:35;17.50;61.20
44729;DHT22;30457;53.590;9.922;2024-02-16T11:28:02;17.60;61.00
44729;DHT22;30457;53.590;9.922;2024-02-16T11:32:32;17.60;61.20
44729;DHT22;30457;53.590;9.922;2024-02-16T11:37:03;17.70;60.50
44729;DHT22;30457;53.590;9.922;2024-02-16T11:41:30;17.80;60.20
44729;DHT22;30457;53.590;9.922;2024-02-16T11:45:56;17.90;60.70
44729;DHT22;30457;53.590;9.922;2024-02-16T11:50:21;17.90;60.10
44729;DHT22;30457;53.590;9.922;2024-02-16T11:54:47;18.00;59.90
44729;DHT22;30457;53.590;9.922;2024-02-16T11:59:14;18.00;60.40
44729;DHT22;30457;53.590;9.922;2024-02-16T12:03:41;18.00;59.90
44729;DHT22;30457;53.590;9.922;2024-02-16T12:08:07;18.10;60.10
44729;DHT22;30457;53.590;9.922;2024-02-16T12:12:33;18.20;59.60
44729;DHT22;30457;53.590;9.922;2024-02-16T12:16:59;18.30;59.70
44729;DHT22;30457;53.590;9.922;2024-02-16T12:21:24;18.30;59.60
44729;DHT22;30457;53.590;9.922;2024-02-16T12:25:50;18.40;59.50
44729;DHT22;30457;53.590;9.922;2024-02-16T12:30:15;18.40;59.30
44729;DHT22;30457;53.590;9.922;2024-02-16T12:34:41;18.50;59.20
44729;DHT22;30457;53.590;9.922;2024-02-16T12:39:06;18.60;58.60
44729;DHT22;30457;53.590;9.922;2024-02-16T12:43:34;18.60;58.40
44729;DHT22;30457;53.590;9.922;2024-02-16T12:48:00;18.70;58.70
44729;DHT22;30457;53.590;9.922;2024-02-16T12:52:25;18.70;58.00
44729;DHT22;30457;53.590;9.922;2024-02-16T12:56:51;18.60;58.20
44729;DHT22;30457;53.590;9.922;2024-02-16T13:01:16;18.70;58.40
44729;DHT22;30457;53.590;9.922;2024-02-16T13:05:46;18.70;58.40
44729;DHT22;30457;53.590;9.922;2024-02-16T13:10:11;18.70;58.30
44729;DHT22;30457;53.590;9.922;2024-02-16T13:14:37;18.70;58.40
44729;DHT22;30457;53.590;9.922;2024-02-16T13:19:02;18.60;58.30
44729;DHT22;30457;53.590;9.922;2024-02-16T13:23:28;18.60;58.00
44729;DHT22;30457;53.590;9.922;2024-02-16T13:27:56;18.60;58.20
44729;DHT22;30457;53.590;9.922;2024-02-16T13:32:22;18.60;58.30
44729;DHT22;30457;53.590;9.922;2024-02-16T13:36:47;18.60;58.40
44729;DHT22;30457;53.590;9.922;2024-02-16T13:41:13;18.60;58.30
44729;DHT22;30457;53.590;9.922;2024-02-16T13:45:53;18.60;58.60
44729;DHT22;30457;53.590;9.922;2024-02-16T13:50:19;18.60;58.40
44729;DHT22;30457;53.590;9.922;2024-02-16T13:54:45;18.60;58.70
44729;DHT22;30457;53.590;9.922;2024-02-16T13:59:10;18.60;58.70
44729;DHT22;30457;53.590;9.922;2024-02-16T14:03:36;18.60;58.70
44729;DHT22;30457;53.590;9.922;2024-02-16T14:08:02;18.60;59.00
44729;DHT22;30457;53.590;9.922;2024-02-16T14:12:27;18.60;58.60
44729;DHT22;30457;53.590;9.922;2024-02-16T14:16:53;18.60;58.50
44729;DHT22;30457;53.590;9.922;2024-02-16T14:21:19;18.60;58.50
44729;DHT22;30457;53.590;9.922;2024-02-16T14:25:44;18.60;58.60
44729;DHT22;30457;53.590;9.922;2024-02-16T14:30:13;18.60;58.60
44729;DHT22;30457;53.590;9.922;2024-02-16T14:34:39;18.60;58.70
44729;DHT22;30457;53.590;9.922;2024-02-16T14:39:06;18.50;58.80
44729;DHT22;30457;53.590;9.922;2024-02-16T14:43:34;18.50;58.50
44729;DHT22;30457;53.590;9.922;2024-02-16T14:47:59;18.40;58.80
44729;DHT22;30457;53.590;9.922;2024-02-16T14:52:25;18.40;59.00
44729;DHT22;30457;53.590;9.922;2024-02-16T14:56:51;18.30;59.20
44729;DHT22;30457;53.590;9.922;2024-02-16T15:01:18;18.20;59.20
44729;DHT22;30457;53.590;9.922;2024-02-16T15:05:43;18.10;59.30
44729;DHT22;30457;53.590;9.922;2024-02-16T15:10:09;18.10;59.60
44729;DHT22;30457;53.590;9.922;2024-02-16T15:14:35;18.00;59.90
44729;DHT22;30457;53.590;9.922;2024-02-16T15:19:02;18.00;60.00
44729;DHT22;30457;53.590;9.922;2024-02-16T15:23:28;17.90;60.20
44729;DHT22;30457;53.590;9.922;2024-02-16T15:27:53;17.80;60.30
44729;DHT22;30457;53.590;9.922;2024-02-16T15:32:21;17.70;60.60
44729;DHT22;30457;53.590;9.922;2024-02-16T15:36:46;17.70;60.90
44729;DHT22;30457;53.590;9.922;2024-02-16T15:41:12;17.60;60.90
44729;DHT22;30457;53.590;9.922;2024-02-16T15:45:38;17.60;61.00
44729;DHT22;30457;53.590;9.922;2024-02-16T15:50:07;17.50;60.90
44729;DHT22;30457;53.590;9.922;2024-02-16T15:54:34;17.50;61.10
44729;DHT22;30457;53.590;9.922;2024-02-16T15:59:00;17.40;61.00
44729;DHT22;30457;53.590;9.922;2024-02-16T16:03:25;17.40;61.00
44729;DHT22;30457;53.590;9.922;2024-02-16T16:07:51;17.30;60.90
44729;DHT22;30457;53.590;9.922;2024-02-16T16:12:17;17.30;61.00
44729;DHT22;30457;53.590;9.922;2024-02-16T16:16:43;17.20;60.90
44729;DHT22;30457;53.590;9.922;2024-02-16T16:21:09;17.20;61.10
44729;DHT22;30457;53.590;9.922;2024-02-16T16:25:35;17.00;61.40
44729;DHT22;30457;53.590;9.922;2024-02-16T16:30:00;16.90;61.50
44729;DHT22;30457;53.590;9.922;2024-02-16T16:34:26;16.80;61.70
44729;DHT22;30457;53.590;9.922;2024-02-16T16:38:54;16.60;62.10
44729;DHT22;30457;53.590;9.922;2024-02-16T16:43:20;16.50;62.50
44729;DHT22;30457;53.590;9.922;2024-02-16T16:47:46;16.40;63.10
44729;DHT22;30457;53.590;9.922;2024-02-16T16:52:12;16.40;63.30
44729;DHT22;30457;53.590;9.922;2024-02-16T16:56:38;16.30;63.30
44729;DHT22;30457;53.590;9.922;2024-02-16T17:01:03;16.20;63.50
44729;DHT22;30457;53.590;9.922;2024-02-16T17:05:29;16.20;63.50
44729;DHT22;30457;53.590;9.922;2024-02-16T17:09:56;16.10;63.50
44729;DHT22;30457;53.590;9.922;2024-02-16T17:14:22;16.00;63.80
44729;DHT22;30457;53.590;9.922;2024-02-16T17:18:49;16.00;63.60
44729;DHT22;30457;53.590;9.922;2024-02-16T17:23:15;15.90;63.80
44729;DHT22;30457;53.590;9.922;2024-02-16T17:27:40;15.90;63.80
44729;DHT22;30457;53.590;9.922;2024-02-16T17:32:06;15.80;63.90
44729;DHT22;30457;53.590;9.922;2024-02-16T17:36:32;15.70;64.10
44729;DHT22;30457;53.590;9.922;2024-02-16T17:40:58;15.70;64.20
44729;DHT22;30457;53.590;9.922;2024-02-16T17:45:24;15.70;64.20
44729;DHT22;30457;53.590;9.922;2024-02-16T17:49:50;15.70;64.20
44729;DHT22;30457;53.590;9.922;2024-02-16T17:54:15;15.70;64.50
44729;DHT22;30457;53.590;9.922;2024-02-16T17:58:41;15.60;64.30
44729;DHT22;30457;53.590;9.922;2024-02-16T18:03:06;15.60;64.20
44729;DHT22;30457;53.590;9.922;2024-02-16T18:07:32;15.60;64.30
44729;DHT22;30457;53.590;9.922;2024-02-16T18:11:57;15.50;64.10
44729;DHT22;30457;53.590;9.922;2024-02-16T18:16:23;15.50;64.10
44729;DHT22;30457;53.590;9.922;2024-02-16T18:20:52;15.50;64.20
44729;DHT22;30457;53.590;9.922;2024-02-16T18:25:18;15.50;64.10
44729;DHT22;30457;53.590;9.922;2024-02-16T18:29:43;15.40;64.10
44729;DHT22;30457;53.590;9.922;2024-02-16T18:34:09;15.40;63.90
44729;DHT22;30457;53.590;9.922;2024-02-16T18:38:34;15.40;63.90
44729;DHT22;30457;53.590;9.922;2024-02-16T18:43:01;15.40;63.70
44729;DHT22;30457;53.590;9.922;2024-02-16T18:47:28;15.30;63.70
44729;DHT22;30457;53.590;9.922;2024-02-16T18:51:54;15.30;63.90
44729;DHT22;30457;53.590;9.922;2024-02-16T18:56:20;15.30;63.90
44729;DHT22;30457;53.590;9.922;2024-02-16T19:00:45;15.20;63.90
44729;DHT22;30457;53.590;9.922;2024-02-16T19:05:11;15.20;63.70
44729;DHT22;30457;53.590;9.922;2024-02-16T19:09:36;15.20;63.70
44729;DHT22;30457;53.590;9.922;2024-02-16T19:14:02;15.10;63.60
44729;DHT22;30457;53.590;9.922;2024-02-16T19:18:28;15.10;63.50
44729;DHT22;30457;53.590;9.922;2024-02-16T19:22:54;15.10;63.60
44729;DHT22;30457;53.590;9.922;2024-02-16T19:27:19;15.00;63.70
44729;DHT22;30457;53.590;9.922;2024-02-16T19:31:46;15.00;63.90
44729;DHT22;30457;53.590;9.922;2024-02-16T19:36:11;15.00;64.10
44729;DHT22;30457;53.590;9.922;2024-02-16T19:40:37;15.00;64.10
44729;DHT22;30457;53.590;9.922;2024-02-16T19:45:03;15.00;64.20
44729;DHT22;30457;53.590;9.922;2024-02-16T19:49:31;15.00;64.10
44729;DHT22;30457;53.590;9.922;2024-02-16T19:53:56;15.00;64.20
44729;DHT22;30457;53.590;9.922;2024-02-16T19:58:22;15.00;64.10
44729;DHT22;30457;53.590;9.922;2024-02-16T20:02:49;15.00;64.00
44729;DHT22;30457;53.590;9.922;2024-02-16T20:07:17;15.00;64.00
44729;DHT22;30457;53.590;9.922;2024-02-16T20:11:43;15.00;63.90
44729;DHT22;30457;53.590;9.922;2024-02-16T20:16:08;15.00;64.00
44729;DHT22;30457;53.590;9.922;2024-02-16T20:20:35;15.00;63.90
44729;DHT22;30457;53.590;9.922;2024-02-16T20:25:01;15.00;63.80
44729;DHT22;30457;53.590;9.922;2024-02-16T20:29:26;14.90;63.90
44729;DHT22;30457;53.590;9.922;2024-02-16T20:33:54;14.90;63.90
44729;DHT22;30457;53.590;9.922;2024-02-16T20:38:19;14.90;64.00
44729;DHT22;30457;53.590;9.922;2024-02-16T20:42:45;14.90;64.10
44729;DHT22;30457;53.590;9.922;2024-02-16T20:47:11;14.90;64.20
44729;DHT22;30457;53.590;9.922;2024-02-16T20:51:37;14.80;64.20
44729;DHT22;30457;53.590;9.922;2024-02-16T20:56:02;14.80;64.30
44729;DHT22;30457;53.590;9.922;2024-02-16T21:00:28;14.80;64.30
44729;DHT22;30457;53.590;9.922;2024-02-16T21:04:53;14.80;64.40
44729;DHT22;30457;53.590;9.922;2024-02-16T21:09:19;14.80;64.50
44729;DHT22;30457;53.590;9.922;2024-02-16T21:13:45;14.80;64.70
44729;DHT22;30457;53.590;9.922;2024-02-16T21:18:10;14.80;64.70
44729;DHT22;30457;53.590;9.922;2024-02-16T21:22:36;14.70;64.70
44729;DHT22;30457;53.590;9.922;2024-02-16T21:27:02;14.70;64.80
44729;DHT22;30457;53.590;9.922;2024-02-16T21:31:27;14.70;64.90
44729;DHT22;30457;53.590;9.922;2024-02-16T21:35:53;14.70;65.10
44729;DHT22;30457;53.590;9.922;2024-02-16T21:40:21;14.70;65.10
44729;DHT22;30457;53.590;9.922;2024-02-16T21:44:48;14.70;65.20
44729;DHT22;30457;53.590;9.922;2024-02-16T21:49:14;14.70;65.30
44729;DHT22;30457;53.590;9.922;2024-02-16T21:53:41;14.70;65.20
44729;DHT22;30457;53.590;9.922;2024-02-16T21:58:06;14.70;65.20
44729;DHT22;30457;53.590;9.922;2024-02-16T22:02:32;14.70;65.20
44729;DHT22;30457;53.590;9.922;2024-02-16T22:06:58;14.70;65.20
44729;DHT22;30457;53.590;9.922;2024-02-16T22:11:24;14.60;65.20
44729;DHT22;30457;53.590;9.922;2024-02-16T22:15:51;14.70;65.30
44729;DHT22;30457;53.590;9.922;2024-02-16T22:20:17;14.70;65.30
44729;DHT22;30457;53.590;9.922;2024-02-16T22:24:42;14.70;65.30
44729;DHT22;30457;53.590;9.922;2024-02-16T22:29:10;14.70;65.30
44729;DHT22;30457;53.590;9.922;2024-02-16T22:33:37;14.70;65.10
44729;DHT22;30457;53.590;9.922;2024-02-16T22:38:06;14.80;65.00
44729;DHT22;30457;53.590;9.922;2024-02-16T22:42:31;14.80;65.00
44729;DHT22;30457;53.590;9.922;2024-02-16T22:46:59;14.80;65.00
44729;DHT22;30457;53.590;9.922;2024-02-16T22:51:25;14.70;64.80
44729;DHT22;30457;53.590;9.922;2024-02-16T22:55:52;14.70;64.80
44729;DHT22;30457;53.590;9.922;2024-02-16T23:00:19;14.70;64.70
44729;DHT22;30457;53.590;9.922;2024-02-16T23:04:51;14.70;64.60
44729;DHT22;30457;53.590;9.922;2024-02-16T23:09:16;14.70;64.40
44729;DHT22;30457;53.590;9.922;2024-02-16T23:13:42;14.70;64.40
44729;DHT22;30457;53.590;9.922;2024-02-16T23:18:08;14.70;64.30
44729;DHT22;30457;53.590;9.922;2024-02-16T23:22:33;14.70;64.30
44729;DHT22;30457;53.590;9.922;2024-02-16T23:26:59;14.70;64.30
44729;DHT22;30457;53.590;9.922;2024-02-16T23:31:24;14.60;64.30
44729;DHT22;30457;53.590;9.922;2024-02-16T23:35:50;14.60;64.40
44729;DHT22;30457;53.590;9.922;2024-02-16T23:40:16;14.60;64.50
44729;DHT22;30457;53.590;9.922;2024-02-16T23:44:41;14.60;64.50
44729;DHT22;30457;53.590;9.922;2024-02-16T23:49:07;14.60;64.60
44729;DHT22;30457;53.590;9.922;2024-02-16T23:53:33;14.60;64.60
44729;DHT22;30457;53.590;9.922;2024-02-16T23:57:59;14.60;64.50
